createdAt,value
2019-04-25T00:00:57.985Z,0
2019-04-25T00:06:03.681Z,0
2019-04-25T00:11:09.131Z,0
2019-04-25T00:16:15.608Z,0
2019-04-25T00:21:21.928Z,0
2019-04-25T00:26:26.962Z,0
2019-04-25T00:31:33.705Z,0
2019-04-25T00:36:46.734Z,0
2019-04-25T00:41:54.203Z,0
2019-04-25T00:46:59.091Z,0
2019-04-25T00:52:06.529Z,0
2019-04-25T00:57:12.752Z,0
2019-04-25T01:02:17.940Z,0
2019-04-25T01:07:24.305Z,0
2019-04-25T01:12:31.298Z,0
2019-04-25T01:17:36.584Z,0
2019-04-25T01:22:43.908Z,0
2019-04-25T01:27:51.796Z,0
2019-04-25T01:32:58.398Z,0
2019-04-25T01:38:04.237Z,0
2019-04-25T01:43:08.832Z,0
2019-04-25T01:48:15.518Z,0
2019-04-25T01:53:20.951Z,0
2019-04-25T01:58:25.820Z,0
2019-04-25T02:03:31.243Z,0
2019-04-25T02:08:36.115Z,0
2019-04-25T02:13:41.259Z,0
2019-04-25T02:18:47.729Z,0
2019-04-25T02:23:58.107Z,0
2019-04-25T02:29:05.760Z,0
2019-04-25T02:34:11.191Z,0
2019-04-25T02:39:21.732Z,0
2019-04-25T02:44:28.736Z,0
2019-04-25T02:49:40.758Z,0
2019-04-25T02:54:46.825Z,0
2019-04-25T02:59:52.263Z,0
2019-04-25T03:05:10.401Z,0
2019-04-25T03:10:16.781Z,0
2019-04-25T03:15:24.011Z,0
2019-04-25T03:20:29.209Z,0
2019-04-25T03:25:35.139Z,0
2019-04-25T03:30:40.838Z,0
2019-04-25T03:35:49.020Z,0
2019-04-25T03:40:55.439Z,0
2019-04-25T03:46:00.579Z,0
2019-04-25T03:51:10.449Z,0
2019-04-25T03:56:17.642Z,0
2019-04-25T04:01:24.243Z,1
2019-04-25T04:06:29.948Z,1
2019-04-25T04:11:35.596Z,1
2019-04-25T04:16:41.018Z,1
2019-04-25T04:21:46.441Z,1
2019-04-25T04:27:07.773Z,2
2019-04-25T04:32:18.548Z,3
2019-04-25T04:37:24.947Z,3
2019-04-25T04:42:30.366Z,3
2019-04-25T04:47:36.779Z,4
2019-04-25T04:52:41.921Z,4
2019-04-25T04:57:48.581Z,4
2019-04-25T05:02:55.169Z,5
2019-04-25T05:07:59.753Z,5
2019-04-25T05:13:06.194Z,6
2019-04-25T05:18:14.414Z,6
2019-04-25T05:23:45.403Z,6
2019-04-25T05:28:50.823Z,6
2019-04-25T05:33:57.719Z,6
2019-04-25T05:39:04.275Z,7
2019-04-25T05:44:09.691Z,8
2019-04-25T05:49:17.148Z,7
2019-04-25T05:54:25.841Z,8
2019-04-25T05:59:31.207Z,8
2019-04-25T06:04:38.555Z,9
2019-04-25T06:09:44.695Z,8
2019-04-25T06:14:50.055Z,9
2019-04-25T06:19:55.297Z,8
2019-04-25T06:25:00.153Z,9
2019-04-25T06:30:06.257Z,9
2019-04-25T06:35:11.666Z,9
2019-04-25T06:40:18.191Z,10
2019-04-25T06:45:28.492Z,10
2019-04-25T06:50:37.064Z,10
2019-04-25T06:55:43.360Z,10
2019-04-25T07:01:03.216Z,11
2019-04-25T07:06:08.036Z,12
2019-04-25T07:11:14.502Z,12
2019-04-25T07:16:19.639Z,32
2019-04-25T07:21:28.063Z,53
2019-04-25T07:26:40.906Z,71
2019-04-25T07:31:46.331Z,106
2019-04-25T07:36:51.563Z,147
2019-04-25T07:41:58.070Z,179
2019-04-25T07:47:05.174Z,185
2019-04-25T07:52:14.512Z,185
2019-04-25T07:57:18.839Z,182
2019-04-25T08:02:24.909Z,178
2019-04-25T08:07:33.386Z,171
2019-04-25T08:12:40.986Z,166
2019-04-25T08:17:48.590Z,156
2019-04-25T08:23:00.092Z,147
2019-04-25T08:28:05.421Z,139
2019-04-25T08:33:10.872Z,136
2019-04-25T08:38:18.066Z,125
2019-04-25T08:43:25.181Z,135
2019-04-25T08:48:31.329Z,134
2019-04-25T08:53:41.463Z,132
2019-04-25T08:59:07.788Z,133
2019-04-25T09:04:15.094Z,128
2019-04-25T09:09:20.560Z,123
2019-04-25T09:14:26.415Z,119
2019-04-25T09:19:31.885Z,115
2019-04-25T09:24:44.043Z,111
2019-04-25T09:29:50.304Z,107
2019-04-25T09:34:56.828Z,106
2019-04-25T09:40:01.749Z,104
2019-04-25T09:45:08.204Z,104
2019-04-25T09:50:14.527Z,99
2019-04-25T09:55:20.280Z,93
2019-04-25T10:00:26.046Z,93
2019-04-25T10:05:30.964Z,85
2019-04-25T10:10:36.441Z,96
2019-04-25T10:15:46.060Z,94
2019-04-25T10:20:52.183Z,90
2019-04-25T10:25:58.925Z,85
2019-04-25T10:31:04.946Z,81
2019-04-25T10:36:10.147Z,72
2019-04-25T10:41:15.856Z,50
2019-04-25T10:46:21.620Z,65
2019-04-25T10:51:28.429Z,62
2019-04-25T10:56:35.095Z,59
2019-04-25T11:01:41.205Z,44
2019-04-25T11:06:50.563Z,71
2019-04-25T11:11:56.386Z,58
2019-04-25T11:17:02.687Z,51
2019-04-25T11:22:08.197Z,55
2019-04-25T11:27:15.331Z,61
2019-04-25T11:32:21.355Z,64
2019-04-25T11:37:28.110Z,30
2019-04-25T11:42:34.969Z,25
2019-04-25T11:47:40.726Z,65
2019-04-25T11:52:48.019Z,53
2019-04-25T11:57:56.674Z,65
2019-04-25T12:03:03.226Z,54
2019-04-25T12:08:08.839Z,77
2019-04-25T12:13:16.617Z,75
2019-04-25T12:18:22.097Z,79
2019-04-25T12:23:27.299Z,66
2019-04-25T12:28:34.313Z,65
2019-04-25T12:33:39.795Z,71
2019-04-25T12:38:48.296Z,74
2019-04-25T12:43:56.985Z,69
2019-04-25T12:49:02.747Z,83
2019-04-25T12:54:07.956Z,82
2019-04-25T12:59:13.165Z,82
2019-04-25T13:04:18.696Z,77
2019-04-25T13:09:23.915Z,78
2019-04-25T13:14:29.782Z,48
2019-04-25T13:19:36.075Z,43
2019-04-25T13:24:41.557Z,75
2019-04-25T13:29:46.763Z,88
2019-04-25T13:34:53.603Z,83
2019-04-25T13:40:01.015Z,87
2019-04-25T13:45:07.035Z,85
2019-04-25T13:50:14.601Z,68
2019-04-25T13:55:21.464Z,50
2019-04-25T14:00:30.214Z,75
2019-04-25T14:05:36.551Z,65
2019-04-25T14:10:41.205Z,85
2019-04-25T14:15:46.914Z,81
2019-04-25T14:20:52.114Z,81
2019-04-25T14:25:57.323Z,75
2019-04-25T14:31:02.535Z,84
2019-04-25T14:36:08.293Z,71
2019-04-25T14:41:14.052Z,74
2019-04-25T14:46:19.533Z,79
2019-04-25T14:51:26.615Z,59
2019-04-25T14:56:32.649Z,68
2019-04-25T15:01:45.982Z,74
2019-04-25T15:06:51.183Z,69
2019-04-25T15:11:56.380Z,67
2019-04-25T15:17:01.583Z,62
2019-04-25T15:22:06.822Z,60
2019-04-25T15:27:11.465Z,58
2019-04-25T15:32:16.528Z,56
2019-04-25T15:37:22.081Z,52
2019-04-25T15:42:29.267Z,55
2019-04-25T15:47:35.998Z,51
2019-04-25T15:52:41.424Z,50
2019-04-25T15:57:48.902Z,47
2019-04-25T16:02:53.591Z,47
2019-04-25T16:07:58.785Z,47
2019-04-25T16:13:03.995Z,45
2019-04-25T16:18:09.185Z,45
2019-04-25T16:23:15.022Z,43
2019-04-25T16:28:20.216Z,44
2019-04-25T16:33:25.687Z,42
2019-04-25T16:38:33.268Z,42
2019-04-25T16:43:40.961Z,41
2019-04-25T16:48:45.719Z,39
2019-04-25T16:53:50.923Z,37
2019-04-25T16:58:56.163Z,37
2019-04-25T17:04:01.642Z,32
2019-04-25T17:09:06.268Z,12
2019-04-25T17:14:11.739Z,7
2019-04-25T17:19:17.478Z,9
2019-04-25T17:24:23.225Z,22
2019-04-25T17:29:28.422Z,17
2019-04-25T17:34:35.223Z,14
2019-04-25T17:39:42.155Z,16
2019-04-25T17:44:47.471Z,6
2019-04-25T17:49:53.210Z,10
2019-04-25T17:54:58.678Z,12
2019-04-25T18:00:03.880Z,6
2019-04-25T18:05:09.344Z,5
2019-04-25T18:10:14.254Z,4
2019-04-25T18:15:19.441Z,2
2019-04-25T18:20:24.625Z,2
2019-04-25T18:25:30.359Z,1
2019-04-25T18:30:38.992Z,0
2019-04-25T18:35:45.835Z,1
2019-04-25T18:40:50.871Z,0
2019-04-25T18:45:56.604Z,0
2019-04-25T18:51:01.778Z,0
2019-04-25T18:56:07.550Z,0
2019-04-25T19:01:12.455Z,0
2019-04-25T19:06:17.450Z,99
2019-04-25T19:11:22.369Z,0
2019-04-25T19:16:27.831Z,0
2019-04-25T19:21:34.929Z,0
2019-04-25T19:26:46.190Z,0
2019-04-25T19:31:54.737Z,0
2019-04-25T19:36:59.912Z,0
2019-04-25T19:42:05.090Z,0
2019-04-25T19:47:09.426Z,0
2019-04-25T19:52:14.395Z,0
2019-04-25T19:57:19.014Z,0
2019-04-25T20:02:26.715Z,0
2019-04-25T20:07:32.166Z,0
2019-04-25T20:12:37.616Z,0
2019-04-25T20:17:45.912Z,0
2019-04-25T20:22:54.404Z,0
2019-04-25T20:27:59.727Z,0
2019-04-25T20:33:04.614Z,0
2019-04-25T20:38:10.117Z,0
2019-04-25T20:43:15.798Z,0
2019-04-25T20:48:21.519Z,0
2019-04-25T20:53:26.685Z,0
2019-04-25T20:58:31.578Z,0
2019-04-25T21:03:36.466Z,0
2019-04-25T21:08:41.360Z,0
2019-04-25T21:13:46.804Z,0
2019-04-25T21:18:53.167Z,0
2019-04-25T21:23:59.943Z,0
2019-04-25T21:29:05.475Z,0
2019-04-25T21:34:10.292Z,0
2019-04-25T21:39:14.611Z,0
2019-04-25T21:44:19.737Z,0
2019-04-25T21:49:26.830Z,0
2019-04-25T21:54:31.750Z,0
2019-04-25T22:00:10.086Z,0
2019-04-25T22:05:15.859Z,0
2019-04-25T22:10:21.208Z,0
2019-04-25T22:15:28.541Z,0
2019-04-25T22:20:34.162Z,0
2019-04-25T22:25:38.490Z,0
2019-04-25T22:30:43.237Z,0
2019-04-25T22:35:48.398Z,0
2019-04-25T22:40:53.830Z,0
2019-04-25T22:46:02.337Z,0
2019-04-25T22:51:09.114Z,0
2019-04-25T22:56:13.733Z,0
2019-04-25T23:01:18.366Z,0
2019-04-25T23:06:23.260Z,0
2019-04-25T23:11:28.214Z,0
2019-04-25T23:16:33.098Z,0
2019-04-25T23:21:38.268Z,0
2019-04-25T23:26:42.885Z,0
2019-04-25T23:31:48.403Z,0
2019-04-25T23:36:53.726Z,0
2019-04-25T23:41:59.224Z,0
2019-04-25T23:47:04.008Z,0
2019-04-25T23:52:13.470Z,0
2019-04-25T23:57:19.416Z,0
